ArgentinaFixed distance
Turmalina Ultra Trail 66K
8 Jun2025
Distance
66km
Finishers
8369 men14 women
Winning time
7:07:35h
Median pace
5.89km/h
Pace distribution
83 finishers · 4.37–9.26 km/h · mean 6.00
Every finisher ran the same 66 km course, so these paces are directly comparable.
Histogram of finisher pace. 83 finishers ranged from 4.37 to 9.26 kilometres per hour, with a mean of 6.00 and a median of 5.89. The busiest band is 5.5 to 6.0 kilometres per hour, with 18 finishers.
Results
Ranks 1–50 of 83
| Rank | Runner | Time | Pace | Cat. | Placing |
|---|---|---|---|---|---|
| 1 | Bodytrailrunning | 7:07:35h | 9.26 | M23 | 1st M · 1st M23 |
| 2 | *Montevideo | 7:21:26h | 8.97 | M23 | 2nd M · 2nd M23 |
| 3 | *San Martín De Los Andes | 7:39:03h | 8.63 | M23 | 3rd M · 3rd M23 |
| 4 | HR Team | 8:11:28h | 8.06 | M45 | 4th M · 1st M45 |
| 5 | *Chabas | 8:41:41h | 7.59 | M35 | 5th M · 1st M35 |
| 6 | Deportes de Resistencia | 8:47:34h | 7.51 | M35 | 6th M · 2nd M35 |
| 7 | Perini Coach | 9:05:08h | 7.26 | M45 | 7th M · 2nd M45 |
| 8 | Natural Entrenamiento ... | 9:08:25h | 7.22 | M23 | 8th M · 4th M23 |
| 9 | Cross Adventure | 9:11:01h | 7.19 | M40 | 9th M · 1st M40 |
| 10 | *Villa General Belgrano | 9:13:58h | 7.15 | M35 | 10th M · 3rd M35 |
| 11 | *Saira | 9:15:54h | 7.12 | M45 | 11th M · 3rd M45 |
| 12 | Nadalezteam | 9:16:17h | 7.12 | W45 | 1st F · 1st W45 |
| 13 | Trisports | 9:16:55h | 7.11 | M35 | 12th M · 4th M35 |
| 14 | Trisports | 9:16:56h | 7.11 | M23 | 13th M · 5th M23 |
| 15 | Los Indices | 9:20:44h | 7.06 | M35 | 14th M · 5th M35 |
| 16 | Trail Run Rosario | 9:33:27h | 6.91 | M23 | 15th M · 6th M23 |
| 17 | FC Team Run | 9:47:59h | 6.74 | M35 | 16th M · 6th M35 |
| 18 | Lucho Pilatti | 9:54:10h | 6.67 | M40 | 17th M · 2nd M40 |
| 19 | New Training | 9:55:30h | 6.65 | M35 | 18th M · 7th M35 |
| 20 | Becerrateam | 9:55:43h | 6.65 | M45 | 19th M · 4th M45 |
| 21 | *Glew | 10:01:07h | 6.59 | M35 | 20th M · 8th M35 |
| 22 | Team Lucho Pilatti | 10:10:48h | 6.48 | M35 | 21st M · 9th M35 |
| 23 | Facundo Torrilla Runni... | 10:11:49h | 6.47 | M23 | 22nd M · 7th M23 |
| 24 | Fcteam | 10:13:40h | 6.45 | W35 | 2nd F · 1st W35 |
| 25 | Evtrainer | 10:19:47h | 6.39 | M40 | 23rd M · 3rd M40 |
| 26 | Evtrainer | 10:19:47h | 6.39 | M40 | 23rd M · 3rd M40 |
| 27 | Oscar SAN Juan Running | 10:20:08h | 6.39 | W40 | 3rd F · 1st W40 |
| 28 | Magnano | 10:22:35h | 6.36 | M45 | 25th M · 5th M45 |
| 29 | Clan Running | 10:23:01h | 6.36 | W35 | 4th F · 2nd W35 |
| 30 | Trail Run Rosario | 10:28:58h | 6.30 | M35 | 26th M · 10th M35 |
| 31 | JF Running Team | 10:31:06h | 6.28 | M40 | 27th M · 5th M40 |
| 32 | *San Nicolas De Los Ar... | 10:32:00h | 6.27 | M50 | 28th M · 1st M50 |
| 33 | D.Sport | 10:34:16h | 6.24 | M45 | 29th M · 6th M45 |
| 34 | Pauluzak | 10:36:01h | 6.23 | M40 | 30th M · 6th M40 |
| 35 | *Chivilcoy | 10:40:44h | 6.18 | M40 | 31st M · 7th M40 |
| 36 | Natural Run | 10:43:37h | 6.15 | M40 | 32nd M · 8th M40 |
| 37 | HR Entrenamiento | 10:47:35h | 6.12 | W45 | 5th F · 2nd W45 |
| 38 | *Las Rosas | 10:52:32h | 6.07 | M35 | 33rd M · 11th M35 |
| 39 | Summit Running Team | 10:55:06h | 6.04 | M55 | 34th M · 1st M55 |
| 40 | IRU Deportes | 11:05:53h | 5.95 | M45 | 35th M · 7th M45 |
| 41 | Evtrainer | 11:06:45h | 5.94 | W35 | 6th F · 3rd W35 |
| 42 | Rocathlon | 11:12:09h | 5.89 | M55 | 36th M · 2nd M55 |
| 43 | Gustatrail | 11:18:55h | 5.83 | M55 | 37th M · 3rd M55 |
| 44 | Nadalez Team | 11:22:38h | 5.80 | M40 | 38th M · 9th M40 |
| 45 | Capitano Running | 11:28:38h | 5.75 | M40 | 39th M · 10th M40 |
| 46 | Atletismo Racing Club | 11:30:25h | 5.74 | W45 | 7th F · 3rd W45 |
| 47 | Libre | 11:30:42h | 5.73 | M45 | 40th M · 8th M45 |
| 48 | HR Entrenamiento | 11:36:47h | 5.68 | M35 | 41st M · 12th M35 |
| 49 | Lyatrainingteam | 11:37:17h | 5.68 | M45 | 42nd M · 9th M45 |
| 50 | *Adrogue | 11:42:00h | 5.64 | MU23 | 43rd M · 1st MU23 |
- 1Bodytrailrunning1st M · 1st M23Time7:07:35hPace9.26Cat.M23
- 2*Montevideo2nd M · 2nd M23Time7:21:26hPace8.97Cat.M23
- 3*San Martín De Los Andes3rd M · 3rd M23Time7:39:03hPace8.63Cat.M23
- 4HR Team4th M · 1st M45Time8:11:28hPace8.06Cat.M45
- 5*Chabas5th M · 1st M35Time8:41:41hPace7.59Cat.M35
- 6Deportes de Resistencia6th M · 2nd M35Time8:47:34hPace7.51Cat.M35
- 7Perini Coach7th M · 2nd M45Time9:05:08hPace7.26Cat.M45
- 8Natural Entrenamiento ...8th M · 4th M23Time9:08:25hPace7.22Cat.M23
- 9Cross Adventure9th M · 1st M40Time9:11:01hPace7.19Cat.M40
- 10*Villa General Belgrano10th M · 3rd M35Time9:13:58hPace7.15Cat.M35
- 11*Saira11th M · 3rd M45Time9:15:54hPace7.12Cat.M45
- 12Nadalezteam1st F · 1st W45Time9:16:17hPace7.12Cat.W45
- 13Trisports12th M · 4th M35Time9:16:55hPace7.11Cat.M35
- 14Trisports13th M · 5th M23Time9:16:56hPace7.11Cat.M23
- 15Los Indices14th M · 5th M35Time9:20:44hPace7.06Cat.M35
- 16Trail Run Rosario15th M · 6th M23Time9:33:27hPace6.91Cat.M23
- 17FC Team Run16th M · 6th M35Time9:47:59hPace6.74Cat.M35
- 18Lucho Pilatti17th M · 2nd M40Time9:54:10hPace6.67Cat.M40
- 19New Training18th M · 7th M35Time9:55:30hPace6.65Cat.M35
- 20Becerrateam19th M · 4th M45Time9:55:43hPace6.65Cat.M45
- 21*Glew20th M · 8th M35Time10:01:07hPace6.59Cat.M35
- 22Team Lucho Pilatti21st M · 9th M35Time10:10:48hPace6.48Cat.M35
- 23Facundo Torrilla Runni...22nd M · 7th M23Time10:11:49hPace6.47Cat.M23
- 24Fcteam2nd F · 1st W35Time10:13:40hPace6.45Cat.W35
- 25Evtrainer23rd M · 3rd M40Time10:19:47hPace6.39Cat.M40
- 26Evtrainer23rd M · 3rd M40Time10:19:47hPace6.39Cat.M40
- 27Oscar SAN Juan Running3rd F · 1st W40Time10:20:08hPace6.39Cat.W40
- 28Magnano25th M · 5th M45Time10:22:35hPace6.36Cat.M45
- 29Clan Running4th F · 2nd W35Time10:23:01hPace6.36Cat.W35
- 30Trail Run Rosario26th M · 10th M35Time10:28:58hPace6.30Cat.M35
- 31JF Running Team27th M · 5th M40Time10:31:06hPace6.28Cat.M40
- 32*San Nicolas De Los Ar...28th M · 1st M50Time10:32:00hPace6.27Cat.M50
- 33D.Sport29th M · 6th M45Time10:34:16hPace6.24Cat.M45
- 34Pauluzak30th M · 6th M40Time10:36:01hPace6.23Cat.M40
- 35*Chivilcoy31st M · 7th M40Time10:40:44hPace6.18Cat.M40
- 36Natural Run32nd M · 8th M40Time10:43:37hPace6.15Cat.M40
- 37HR Entrenamiento5th F · 2nd W45Time10:47:35hPace6.12Cat.W45
- 38*Las Rosas33rd M · 11th M35Time10:52:32hPace6.07Cat.M35
- 39Summit Running Team34th M · 1st M55Time10:55:06hPace6.04Cat.M55
- 40IRU Deportes35th M · 7th M45Time11:05:53hPace5.95Cat.M45
- 41Evtrainer6th F · 3rd W35Time11:06:45hPace5.94Cat.W35
- 42Rocathlon36th M · 2nd M55Time11:12:09hPace5.89Cat.M55
- 43Gustatrail37th M · 3rd M55Time11:18:55hPace5.83Cat.M55
- 44Nadalez Team38th M · 9th M40Time11:22:38hPace5.80Cat.M40
- 45Capitano Running39th M · 10th M40Time11:28:38hPace5.75Cat.M40
- 46Atletismo Racing Club7th F · 3rd W45Time11:30:25hPace5.74Cat.W45
- 47Libre40th M · 8th M45Time11:30:42hPace5.73Cat.M45
- 48HR Entrenamiento41st M · 12th M35Time11:36:47hPace5.68Cat.M35
- 49Lyatrainingteam42nd M · 9th M45Time11:37:17hPace5.68Cat.M45
- 50*Adrogue43rd M · 1st MU23Time11:42:00hPace5.64Cat.MU23
Showing ranks 1–50 of 83